sensor_id;sensor_type;location;lat;lon;timestamp;P1;durP1;ratioP1;P2;durP2;ratioP2
4389;SDS011;2209;48.982;8.406;2023-07-28T00:02:17;4.00;;;3.07;;
4389;SDS011;2209;48.982;8.406;2023-07-28T00:04:39;2.30;;;2.10;;
4389;SDS011;2209;48.982;8.406;2023-07-28T00:07:01;4.20;;;3.20;;
4389;SDS011;2209;48.982;8.406;2023-07-28T00:09:24;3.00;;;2.80;;
4389;SDS011;2209;48.982;8.406;2023-07-28T00:11:46;3.50;;;2.90;;
4389;SDS011;2209;48.982;8.406;2023-07-28T00:14:08;3.20;;;2.90;;
4389;SDS011;2209;48.982;8.406;2023-07-28T00:16:31;7.10;;;3.07;;
4389;SDS011;2209;48.982;8.406;2023-07-28T00:18:53;5.90;;;2.37;;
4389;SDS011;2209;48.982;8.406;2023-07-28T00:21:15;2.93;;;2.67;;
4389;SDS011;2209;48.982;8.406;2023-07-28T00:23:37;2.90;;;2.70;;
4389;SDS011;2209;48.982;8.406;2023-07-28T00:26:00;5.37;;;3.07;;
4389;SDS011;2209;48.982;8.406;2023-07-28T00:28:22;3.00;;;2.80;;
4389;SDS011;2209;48.982;8.406;2023-07-28T00:30:44;3.30;;;3.03;;
4389;SDS011;2209;48.982;8.406;2023-07-28T00:33:07;3.10;;;2.90;;
4389;SDS011;2209;48.982;8.406;2023-07-28T00:35:29;3.60;;;3.10;;
4389;SDS011;2209;48.982;8.406;2023-07-28T00:37:51;5.70;;;2.77;;
4389;SDS011;2209;48.982;8.406;2023-07-28T00:40:13;2.80;;;2.47;;
4389;SDS011;2209;48.982;8.406;2023-07-28T00:42:35;3.67;;;3.37;;
4389;SDS011;2209;48.982;8.406;2023-07-28T00:44:57;2.60;;;2.40;;
4389;SDS011;2209;48.982;8.406;2023-07-28T00:47:19;3.27;;;2.97;;
4389;SDS011;2209;48.982;8.406;2023-07-28T00:49:43;5.90;;;3.00;;
4389;SDS011;2209;48.982;8.406;2023-07-28T00:52:05;3.43;;;3.13;;
4389;SDS011;2209;48.982;8.406;2023-07-28T00:54:29;4.27;;;3.10;;
4389;SDS011;2209;48.982;8.406;2023-07-28T00:56:51;8.03;;;3.47;;
4389;SDS011;2209;48.982;8.406;2023-07-28T00:59:13;2.90;;;2.70;;
4389;SDS011;2209;48.982;8.406;2023-07-28T01:01:35;3.10;;;2.90;;
4389;SDS011;2209;48.982;8.406;2023-07-28T01:03:57;3.90;;;3.20;;
4389;SDS011;2209;48.982;8.406;2023-07-28T01:06:24;3.10;;;2.90;;
4389;SDS011;2209;48.982;8.406;2023-07-28T01:08:52;3.60;;;3.30;;
4389;SDS011;2209;48.982;8.406;2023-07-28T01:11:20;3.97;;;3.30;;
4389;SDS011;2209;48.982;8.406;2023-07-28T01:13:43;3.30;;;3.00;;
4389;SDS011;2209;48.982;8.406;2023-07-28T01:16:05;3.80;;;3.37;;
4389;SDS011;2209;48.982;8.406;2023-07-28T01:18:28;6.03;;;2.70;;
4389;SDS011;2209;48.982;8.406;2023-07-28T01:20:50;3.67;;;3.37;;
4389;SDS011;2209;48.982;8.406;2023-07-28T01:23:19;3.87;;;3.03;;
4389;SDS011;2209;48.982;8.406;2023-07-28T01:25:49;3.90;;;2.90;;
4389;SDS011;2209;48.982;8.406;2023-07-28T01:28:20;5.30;;;2.60;;
4389;SDS011;2209;48.982;8.406;2023-07-28T01:30:43;3.30;;;3.10;;
4389;SDS011;2209;48.982;8.406;2023-07-28T01:33:06;3.10;;;2.90;;
4389;SDS011;2209;48.982;8.406;2023-07-28T01:35:29;5.73;;;2.30;;
4389;SDS011;2209;48.982;8.406;2023-07-28T01:37:51;3.40;;;3.20;;
4389;SDS011;2209;48.982;8.406;2023-07-28T01:40:13;4.97;;;2.87;;
4389;SDS011;2209;48.982;8.406;2023-07-28T01:42:35;3.00;;;2.70;;
4389;SDS011;2209;48.982;8.406;2023-07-28T01:44:59;6.13;;;3.20;;
4389;SDS011;2209;48.982;8.406;2023-07-28T01:47:21;3.50;;;3.20;;
4389;SDS011;2209;48.982;8.406;2023-07-28T01:49:43;3.80;;;3.50;;
4389;SDS011;2209;48.982;8.406;2023-07-28T01:52:05;3.77;;;3.47;;
4389;SDS011;2209;48.982;8.406;2023-07-28T01:54:27;3.20;;;2.90;;
4389;SDS011;2209;48.982;8.406;2023-07-28T01:56:49;4.77;;;3.00;;
4389;SDS011;2209;48.982;8.406;2023-07-28T01:59:11;4.70;;;3.20;;
4389;SDS011;2209;48.982;8.406;2023-07-28T02:01:35;2.80;;;2.60;;
4389;SDS011;2209;48.982;8.406;2023-07-28T02:03:57;3.43;;;3.13;;
4389;SDS011;2209;48.982;8.406;2023-07-28T02:06:19;5.57;;;3.50;;
4389;SDS011;2209;48.982;8.406;2023-07-28T02:08:41;3.50;;;3.20;;
4389;SDS011;2209;48.982;8.406;2023-07-28T02:11:03;3.33;;;3.03;;
4389;SDS011;2209;48.982;8.406;2023-07-28T02:13:25;2.80;;;2.60;;
4389;SDS011;2209;48.982;8.406;2023-07-28T02:15:48;5.43;;;3.80;;
4389;SDS011;2209;48.982;8.406;2023-07-28T02:18:11;3.70;;;3.20;;
4389;SDS011;2209;48.982;8.406;2023-07-28T02:20:33;3.23;;;3.00;;
4389;SDS011;2209;48.982;8.406;2023-07-28T02:22:56;4.70;;;2.90;;
4389;SDS011;2209;48.982;8.406;2023-07-28T02:25:18;2.97;;;2.73;;
4389;SDS011;2209;48.982;8.406;2023-07-28T02:27:40;3.40;;;3.10;;
4389;SDS011;2209;48.982;8.406;2023-07-28T02:30:02;2.80;;;2.60;;
4389;SDS011;2209;48.982;8.406;2023-07-28T02:32:25;6.93;;;3.13;;
4389;SDS011;2209;48.982;8.406;2023-07-28T02:34:50;3.00;;;2.63;;
4389;SDS011;2209;48.982;8.406;2023-07-28T02:37:12;6.93;;;3.20;;
4389;SDS011;2209;48.982;8.406;2023-07-28T02:39:35;4.57;;;3.20;;
4389;SDS011;2209;48.982;8.406;2023-07-28T02:41:57;4.07;;;3.67;;
4389;SDS011;2209;48.982;8.406;2023-07-28T02:44:19;3.93;;;2.70;;
4389;SDS011;2209;48.982;8.406;2023-07-28T02:46:41;2.80;;;2.60;;
4389;SDS011;2209;48.982;8.406;2023-07-28T02:49:03;3.73;;;3.10;;
4389;SDS011;2209;48.982;8.406;2023-07-28T02:51:27;3.43;;;3.13;;
4389;SDS011;2209;48.982;8.406;2023-07-28T02:53:49;3.57;;;3.23;;
4389;SDS011;2209;48.982;8.406;2023-07-28T02:56:11;3.80;;;3.50;;
4389;SDS011;2209;48.982;8.406;2023-07-28T02:58:33;5.60;;;2.90;;
4389;SDS011;2209;48.982;8.406;2023-07-28T03:00:55;9.13;;;2.60;;
4389;SDS011;2209;48.982;8.406;2023-07-28T03:03:17;3.50;;;3.20;;
4389;SDS011;2209;48.982;8.406;2023-07-28T03:05:39;3.17;;;2.87;;
4389;SDS011;2209;48.982;8.406;2023-07-28T03:08:03;3.30;;;3.00;;
4389;SDS011;2209;48.982;8.406;2023-07-28T03:10:25;3.00;;;2.80;;
4389;SDS011;2209;48.982;8.406;2023-07-28T03:12:47;3.07;;;2.77;;
4389;SDS011;2209;48.982;8.406;2023-07-28T03:15:09;3.40;;;3.10;;
4389;SDS011;2209;48.982;8.406;2023-07-28T03:17:31;4.47;;;3.10;;
4389;SDS011;2209;48.982;8.406;2023-07-28T03:19:53;3.33;;;3.00;;
4389;SDS011;2209;48.982;8.406;2023-07-28T03:22:15;4.10;;;3.63;;
4389;SDS011;2209;48.982;8.406;2023-07-28T03:24:38;3.40;;;3.10;;
4389;SDS011;2209;48.982;8.406;2023-07-28T03:27:02;7.90;;;3.63;;
4389;SDS011;2209;48.982;8.406;2023-07-28T03:29:24;7.00;;;3.03;;
4389;SDS011;2209;48.982;8.406;2023-07-28T03:31:46;5.60;;;3.13;;
4389;SDS011;2209;48.982;8.406;2023-07-28T03:34:08;3.80;;;3.07;;
4389;SDS011;2209;48.982;8.406;2023-07-28T03:36:30;7.37;;;4.13;;
4389;SDS011;2209;48.982;8.406;2023-07-28T03:38:52;5.17;;;3.00;;
4389;SDS011;2209;48.982;8.406;2023-07-28T03:41:16;3.00;;;2.80;;
4389;SDS011;2209;48.982;8.406;2023-07-28T03:43:38;4.47;;;4.10;;
4389;SDS011;2209;48.982;8.406;2023-07-28T03:46:00;3.23;;;3.03;;
4389;SDS011;2209;48.982;8.406;2023-07-28T03:48:22;3.57;;;3.27;;
4389;SDS011;2209;48.982;8.406;2023-07-28T03:50:44;2.97;;;2.70;;
4389;SDS011;2209;48.982;8.406;2023-07-28T03:53:06;3.53;;;3.33;;
4389;SDS011;2209;48.982;8.406;2023-07-28T03:55:28;4.13;;;3.10;;
4389;SDS011;2209;48.982;8.406;2023-07-28T03:57:51;3.93;;;3.20;;
4389;SDS011;2209;48.982;8.406;2023-07-28T04:00:13;3.93;;;3.53;;
4389;SDS011;2209;48.982;8.406;2023-07-28T04:02:36;5.63;;;3.60;;
4389;SDS011;2209;48.982;8.406;2023-07-28T04:04:58;3.20;;;3.00;;
4389;SDS011;2209;48.982;8.406;2023-07-28T04:07:20;3.53;;;3.33;;
4389;SDS011;2209;48.982;8.406;2023-07-28T04:09:42;3.43;;;3.13;;
4389;SDS011;2209;48.982;8.406;2023-07-28T04:12:04;3.47;;;3.20;;
4389;SDS011;2209;48.982;8.406;2023-07-28T04:14:28;3.27;;;2.77;;
4389;SDS011;2209;48.982;8.406;2023-07-28T04:16:50;3.40;;;3.10;;
4389;SDS011;2209;48.982;8.406;2023-07-28T04:19:12;3.70;;;3.40;;
4389;SDS011;2209;48.982;8.406;2023-07-28T04:21:34;4.20;;;3.90;;
4389;SDS011;2209;48.982;8.406;2023-07-28T04:23:59;6.60;;;3.60;;
4389;SDS011;2209;48.982;8.406;2023-07-28T04:26:22;4.90;;;3.83;;
4389;SDS011;2209;48.982;8.406;2023-07-28T04:28:45;4.47;;;3.30;;
4389;SDS011;2209;48.982;8.406;2023-07-28T04:31:09;3.37;;;3.03;;
4389;SDS011;2209;48.982;8.406;2023-07-28T04:33:31;4.30;;;3.17;;
4389;SDS011;2209;48.982;8.406;2023-07-28T04:35:54;4.03;;;2.87;;
4389;SDS011;2209;48.982;8.406;2023-07-28T04:38:16;3.57;;;3.27;;
4389;SDS011;2209;48.982;8.406;2023-07-28T04:40:38;3.90;;;3.50;;
4389;SDS011;2209;48.982;8.406;2023-07-28T04:43:00;4.10;;;3.57;;
4389;SDS011;2209;48.982;8.406;2023-07-28T04:45:23;3.57;;;3.30;;
4389;SDS011;2209;48.982;8.406;2023-07-28T04:47:46;3.57;;;3.27;;
4389;SDS011;2209;48.982;8.406;2023-07-28T04:50:11;3.70;;;3.50;;
4389;SDS011;2209;48.982;8.406;2023-07-28T04:52:33;4.00;;;3.70;;
4389;SDS011;2209;48.982;8.406;2023-07-28T04:54:55;4.53;;;4.13;;
4389;SDS011;2209;48.982;8.406;2023-07-28T04:57:17;4.60;;;3.53;;
4389;SDS011;2209;48.982;8.406;2023-07-28T04:59:40;4.67;;;4.27;;
4389;SDS011;2209;48.982;8.406;2023-07-28T05:02:02;4.30;;;3.90;;
4389;SDS011;2209;48.982;8.406;2023-07-28T05:04:26;4.27;;;3.87;;
4389;SDS011;2209;48.982;8.406;2023-07-28T05:06:48;5.10;;;4.60;;
4389;SDS011;2209;48.982;8.406;2023-07-28T05:09:10;5.03;;;4.30;;
4389;SDS011;2209;48.982;8.406;2023-07-28T05:11:32;5.47;;;4.47;;
4389;SDS011;2209;48.982;8.406;2023-07-28T05:13:54;4.97;;;4.50;;
4389;SDS011;2209;48.982;8.406;2023-07-28T05:16:16;5.20;;;4.70;;
4389;SDS011;2209;48.982;8.406;2023-07-28T05:18:38;4.97;;;3.70;;
4389;SDS011;2209;48.982;8.406;2023-07-28T05:21:04;5.87;;;3.97;;
4389;SDS011;2209;48.982;8.406;2023-07-28T05:23:26;5.97;;;4.20;;
4389;SDS011;2209;48.982;8.406;2023-07-28T05:25:48;4.20;;;3.80;;
4389;SDS011;2209;48.982;8.406;2023-07-28T05:28:10;4.23;;;3.83;;
4389;SDS011;2209;48.982;8.406;2023-07-28T05:30:32;5.93;;;4.27;;
4389;SDS011;2209;48.982;8.406;2023-07-28T05:32:54;6.33;;;4.17;;
4389;SDS011;2209;48.982;8.406;2023-07-28T05:35:16;9.40;;;3.70;;
4389;SDS011;2209;48.982;8.406;2023-07-28T05:37:40;5.30;;;4.80;;
4389;SDS011;2209;48.982;8.406;2023-07-28T05:40:02;4.20;;;3.90;;
4389;SDS011;2209;48.982;8.406;2023-07-28T05:42:25;4.53;;;4.13;;
4389;SDS011;2209;48.982;8.406;2023-07-28T05:44:47;3.73;;;3.40;;
4389;SDS011;2209;48.982;8.406;2023-07-28T05:47:09;5.63;;;3.73;;
4389;SDS011;2209;48.982;8.406;2023-07-28T05:49:31;4.20;;;3.60;;
4389;SDS011;2209;48.982;8.406;2023-07-28T05:51:53;5.53;;;3.40;;
4389;SDS011;2209;48.982;8.406;2023-07-28T05:54:17;4.03;;;3.50;;
4389;SDS011;2209;48.982;8.406;2023-07-28T05:56:39;3.90;;;3.60;;
4389;SDS011;2209;48.982;8.406;2023-07-28T05:59:01;4.20;;;3.80;;
4389;SDS011;2209;48.982;8.406;2023-07-28T06:01:23;3.70;;;3.20;;
4389;SDS011;2209;48.982;8.406;2023-07-28T06:03:46;3.40;;;3.20;;
4389;SDS011;2209;48.982;8.406;2023-07-28T06:06:08;3.53;;;3.20;;
4389;SDS011;2209;48.982;8.406;2023-07-28T06:08:30;3.33;;;3.13;;
4389;SDS011;2209;48.982;8.406;2023-07-28T06:10:54;3.03;;;2.60;;
4389;SDS011;2209;48.982;8.406;2023-07-28T06:13:16;4.27;;;3.60;;
4389;SDS011;2209;48.982;8.406;2023-07-28T06:15:38;3.13;;;2.83;;
4389;SDS011;2209;48.982;8.406;2023-07-28T06:18:00;2.90;;;2.27;;
4389;SDS011;2209;48.982;8.406;2023-07-28T06:20:23;2.30;;;2.20;;
4389;SDS011;2209;48.982;8.406;2023-07-28T06:22:45;2.67;;;2.47;;
4389;SDS011;2209;48.982;8.406;2023-07-28T06:25:07;3.00;;;2.77;;
4389;SDS011;2209;48.982;8.406;2023-07-28T06:27:30;2.70;;;2.50;;
4389;SDS011;2209;48.982;8.406;2023-07-28T06:29:52;2.17;;;2.07;;
4389;SDS011;2209;48.982;8.406;2023-07-28T06:32:14;2.60;;;1.80;;
4389;SDS011;2209;48.982;8.406;2023-07-28T06:34:36;2.30;;;2.10;;
4389;SDS011;2209;48.982;8.406;2023-07-28T06:36:58;2.10;;;2.00;;
4389;SDS011;2209;48.982;8.406;2023-07-28T06:39:20;2.30;;;2.10;;
4389;SDS011;2209;48.982;8.406;2023-07-28T06:41:43;3.20;;;2.47;;
4389;SDS011;2209;48.982;8.406;2023-07-28T06:44:06;1.73;;;1.63;;
4389;SDS011;2209;48.982;8.406;2023-07-28T06:46:28;2.57;;;1.60;;
4389;SDS011;2209;48.982;8.406;2023-07-28T06:48:50;2.17;;;1.97;;
4389;SDS011;2209;48.982;8.406;2023-07-28T06:51:13;1.90;;;1.80;;
4389;SDS011;2209;48.982;8.406;2023-07-28T06:53:35;1.80;;;1.70;;
4389;SDS011;2209;48.982;8.406;2023-07-28T06:55:57;1.87;;;1.77;;
4389;SDS011;2209;48.982;8.406;2023-07-28T06:58:19;2.00;;;1.90;;
4389;SDS011;2209;48.982;8.406;2023-07-28T07:00:43;2.10;;;1.90;;
4389;SDS011;2209;48.982;8.406;2023-07-28T07:03:05;2.77;;;2.57;;
4389;SDS011;2209;48.982;8.406;2023-07-28T07:05:27;2.47;;;2.27;;
4389;SDS011;2209;48.982;8.406;2023-07-28T07:07:49;2.10;;;2.00;;
4389;SDS011;2209;48.982;8.406;2023-07-28T07:10:11;3.13;;;1.77;;
4389;SDS011;2209;48.982;8.406;2023-07-28T07:12:33;2.07;;;1.80;;
4389;SDS011;2209;48.982;8.406;2023-07-28T07:14:55;1.70;;;1.60;;
4389;SDS011;2209;48.982;8.406;2023-07-28T07:17:19;1.87;;;1.77;;
4389;SDS011;2209;48.982;8.406;2023-07-28T07:19:41;2.30;;;2.10;;
4389;SDS011;2209;48.982;8.406;2023-07-28T07:22:03;2.30;;;2.10;;
4389;SDS011;2209;48.982;8.406;2023-07-28T07:24:26;2.40;;;2.07;;
4389;SDS011;2209;48.982;8.406;2023-07-28T07:26:48;1.97;;;1.87;;
4389;SDS011;2209;48.982;8.406;2023-07-28T07:29:11;1.93;;;1.83;;
4389;SDS011;2209;48.982;8.406;2023-07-28T07:31:33;2.30;;;2.10;;
4389;SDS011;2209;48.982;8.406;2023-07-28T07:33:56;2.40;;;1.90;;
4389;SDS011;2209;48.982;8.406;2023-07-28T07:36:19;2.20;;;2.10;;
4389;SDS011;2209;48.982;8.406;2023-07-28T07:38:41;2.27;;;2.17;;
4389;SDS011;2209;48.982;8.406;2023-07-28T07:41:06;2.43;;;2.23;;
4389;SDS011;2209;48.982;8.406;2023-07-28T07:43:28;2.40;;;2.20;;
4389;SDS011;2209;48.982;8.406;2023-07-28T07:45:50;3.07;;;1.93;;
4389;SDS011;2209;48.982;8.406;2023-07-28T07:48:15;2.00;;;1.90;;
4389;SDS011;2209;48.982;8.406;2023-07-28T07:50:38;1.80;;;1.70;;
4389;SDS011;2209;48.982;8.406;2023-07-28T07:53:00;2.20;;;1.67;;
4389;SDS011;2209;48.982;8.406;2023-07-28T07:55:22;2.40;;;2.10;;
4389;SDS011;2209;48.982;8.406;2023-07-28T07:57:44;2.10;;;2.00;;
4389;SDS011;2209;48.982;8.406;2023-07-28T08:00:07;2.90;;;2.30;;
4389;SDS011;2209;48.982;8.406;2023-07-28T08:02:31;2.70;;;2.50;;
4389;SDS011;2209;48.982;8.406;2023-07-28T08:04:53;2.50;;;2.23;;
4389;SDS011;2209;48.982;8.406;2023-07-28T08:07:17;2.57;;;2.37;;
4389;SDS011;2209;48.982;8.406;2023-07-28T08:09:39;3.00;;;2.70;;
4389;SDS011;2209;48.982;8.406;2023-07-28T08:12:02;3.53;;;2.90;;
4389;SDS011;2209;48.982;8.406;2023-07-28T08:14:25;3.00;;;2.80;;
4389;SDS011;2209;48.982;8.406;2023-07-28T08:16:47;3.33;;;3.03;;
4389;SDS011;2209;48.982;8.406;2023-07-28T08:19:09;3.47;;;3.17;;
4389;SDS011;2209;48.982;8.406;2023-07-28T08:21:31;2.63;;;2.50;;
4389;SDS011;2209;48.982;8.406;2023-07-28T08:23:58;2.97;;;2.77;;
4389;SDS011;2209;48.982;8.406;2023-07-28T08:26:20;3.57;;;2.97;;
4389;SDS011;2209;48.982;8.406;2023-07-28T08:28:42;1.93;;;1.83;;
4389;SDS011;2209;48.982;8.406;2023-07-28T08:31:04;3.50;;;2.87;;
4389;SDS011;2209;48.982;8.406;2023-07-28T08:33:26;2.27;;;2.17;;
4389;SDS011;2209;48.982;8.406;2023-07-28T08:35:48;2.73;;;2.40;;
4389;SDS011;2209;48.982;8.406;2023-07-28T08:38:11;4.20;;;2.50;;
4389;SDS011;2209;48.982;8.406;2023-07-28T08:40:34;2.60;;;2.40;;
4389;SDS011;2209;48.982;8.406;2023-07-28T08:42:57;3.47;;;2.70;;
4389;SDS011;2209;48.982;8.406;2023-07-28T08:45:19;2.90;;;2.70;;
4389;SDS011;2209;48.982;8.406;2023-07-28T08:47:42;3.70;;;1.90;;
4389;SDS011;2209;48.982;8.406;2023-07-28T08:50:04;2.67;;;2.47;;
4389;SDS011;2209;48.982;8.406;2023-07-28T08:52:27;3.60;;;2.70;;
4389;SDS011;2209;48.982;8.406;2023-07-28T08:54:49;2.70;;;2.50;;
4389;SDS011;2209;48.982;8.406;2023-07-28T08:57:13;3.17;;;2.97;;
4389;SDS011;2209;48.982;8.406;2023-07-28T08:59:35;4.20;;;2.60;;
4389;SDS011;2209;48.982;8.406;2023-07-28T09:02:02;3.17;;;2.43;;
4389;SDS011;2209;48.982;8.406;2023-07-28T09:04:26;2.77;;;2.50;;
4389;SDS011;2209;48.982;8.406;2023-07-28T09:06:48;2.83;;;2.10;;
4389;SDS011;2209;48.982;8.406;2023-07-28T09:09:11;4.53;;;2.27;;
4389;SDS011;2209;48.982;8.406;2023-07-28T09:11:38;2.63;;;2.00;;
4389;SDS011;2209;48.982;8.406;2023-07-28T09:14:07;2.80;;;1.83;;
4389;SDS011;2209;48.982;8.406;2023-07-28T09:16:33;3.43;;;2.53;;
4389;SDS011;2209;48.982;8.406;2023-07-28T09:19:03;2.10;;;2.00;;
4389;SDS011;2209;48.982;8.406;2023-07-28T09:21:26;3.30;;;2.30;;
4389;SDS011;2209;48.982;8.406;2023-07-28T09:23:49;3.07;;;2.37;;
4389;SDS011;2209;48.982;8.406;2023-07-28T09:26:11;3.43;;;2.63;;
4389;SDS011;2209;48.982;8.406;2023-07-28T09:28:37;2.87;;;2.67;;
4389;SDS011;2209;48.982;8.406;2023-07-28T09:31:01;2.67;;;2.47;;
4389;SDS011;2209;48.982;8.406;2023-07-28T09:33:29;3.60;;;2.27;;
4389;SDS011;2209;48.982;8.406;2023-07-28T09:35:52;2.50;;;2.30;;
4389;SDS011;2209;48.982;8.406;2023-07-28T09:38:14;2.37;;;2.17;;
4389;SDS011;2209;48.982;8.406;2023-07-28T09:40:36;2.17;;;1.80;;
4389;SDS011;2209;48.982;8.406;2023-07-28T09:42:58;2.80;;;2.60;;
4389;SDS011;2209;48.982;8.406;2023-07-28T09:45:21;2.67;;;2.47;;
4389;SDS011;2209;48.982;8.406;2023-07-28T09:47:45;4.53;;;2.17;;
4389;SDS011;2209;48.982;8.406;2023-07-28T09:50:08;2.93;;;2.73;;
4389;SDS011;2209;48.982;8.406;2023-07-28T09:52:33;3.00;;;2.00;;
4389;SDS011;2209;48.982;8.406;2023-07-28T09:54:56;2.67;;;2.47;;
4389;SDS011;2209;48.982;8.406;2023-07-28T09:57:20;2.60;;;2.40;;
4389;SDS011;2209;48.982;8.406;2023-07-28T09:59:43;3.20;;;2.53;;
4389;SDS011;2209;48.982;8.406;2023-07-28T10:02:08;2.47;;;2.27;;
4389;SDS011;2209;48.982;8.406;2023-07-28T10:04:32;2.60;;;2.40;;
4389;SDS011;2209;48.982;8.406;2023-07-28T10:06:54;2.80;;;2.60;;
4389;SDS011;2209;48.982;8.406;2023-07-28T10:09:17;3.37;;;2.57;;
4389;SDS011;2209;48.982;8.406;2023-07-28T10:11:39;2.37;;;2.17;;
4389;SDS011;2209;48.982;8.406;2023-07-28T10:14:01;2.47;;;2.27;;
4389;SDS011;2209;48.982;8.406;2023-07-28T10:16:29;2.97;;;2.63;;
4389;SDS011;2209;48.982;8.406;2023-07-28T10:18:53;2.40;;;2.30;;
4389;SDS011;2209;48.982;8.406;2023-07-28T10:21:20;2.83;;;2.63;;
4389;SDS011;2209;48.982;8.406;2023-07-28T10:23:43;2.73;;;2.53;;
4389;SDS011;2209;48.982;8.406;2023-07-28T10:26:08;3.07;;;2.20;;
4389;SDS011;2209;48.982;8.406;2023-07-28T10:28:31;2.50;;;2.30;;
4389;SDS011;2209;48.982;8.406;2023-07-28T10:30:58;3.63;;;2.10;;
4389;SDS011;2209;48.982;8.406;2023-07-28T10:33:31;1.90;;;1.80;;
4389;SDS011;2209;48.982;8.406;2023-07-28T10:35:54;2.87;;;2.67;;
4389;SDS011;2209;48.982;8.406;2023-07-28T10:38:33;2.83;;;2.17;;
4389;SDS011;2209;48.982;8.406;2023-07-28T10:41:07;2.70;;;2.50;;
4389;SDS011;2209;48.982;8.406;2023-07-28T10:43:30;3.07;;;2.50;;
4389;SDS011;2209;48.982;8.406;2023-07-28T10:45:52;3.10;;;2.00;;
4389;SDS011;2209;48.982;8.406;2023-07-28T10:48:14;2.43;;;2.30;;
4389;SDS011;2209;48.982;8.406;2023-07-28T10:50:36;3.53;;;2.57;;
4389;SDS011;2209;48.982;8.406;2023-07-28T10:52:59;2.40;;;2.03;;
4389;SDS011;2209;48.982;8.406;2023-07-28T10:55:24;3.20;;;2.00;;
4389;SDS011;2209;48.982;8.406;2023-07-28T10:57:47;3.20;;;2.67;;
4389;SDS011;2209;48.982;8.406;2023-07-28T11:00:11;4.53;;;2.20;;
4389;SDS011;2209;48.982;8.406;2023-07-28T11:02:37;2.20;;;2.00;;
4389;SDS011;2209;48.982;8.406;2023-07-28T11:05:00;2.50;;;2.30;;
4389;SDS011;2209;48.982;8.406;2023-07-28T11:07:28;2.93;;;2.27;;
4389;SDS011;2209;48.982;8.406;2023-07-28T11:09:50;1.77;;;1.67;;
4389;SDS011;2209;48.982;8.406;2023-07-28T11:12:16;2.50;;;2.30;;
4389;SDS011;2209;48.982;8.406;2023-07-28T11:14:38;3.00;;;2.10;;
4389;SDS011;2209;48.982;8.406;2023-07-28T11:17:01;1.63;;;1.53;;
4389;SDS011;2209;48.982;8.406;2023-07-28T11:19:23;2.13;;;1.80;;
4389;SDS011;2209;48.982;8.406;2023-07-28T11:21:45;2.73;;;1.63;;
4389;SDS011;2209;48.982;8.406;2023-07-28T11:24:11;2.27;;;2.10;;
4389;SDS011;2209;48.982;8.406;2023-07-28T11:26:39;2.43;;;1.70;;
4389;SDS011;2209;48.982;8.406;2023-07-28T11:29:02;2.80;;;1.80;;
4389;SDS011;2209;48.982;8.406;2023-07-28T11:31:26;2.00;;;1.90;;
4389;SDS011;2209;48.982;8.406;2023-07-28T11:33:48;2.30;;;2.10;;
4389;SDS011;2209;48.982;8.406;2023-07-28T11:36:10;3.30;;;2.30;;
4389;SDS011;2209;48.982;8.406;2023-07-28T11:38:32;2.17;;;1.97;;
4389;SDS011;2209;48.982;8.406;2023-07-28T11:40:55;5.17;;;2.43;;
4389;SDS011;2209;48.982;8.406;2023-07-28T11:43:18;2.33;;;2.23;;
4389;SDS011;2209;48.982;8.406;2023-07-28T11:45:41;2.63;;;2.43;;
4389;SDS011;2209;48.982;8.406;2023-07-28T11:48:06;2.53;;;2.33;;
4389;SDS011;2209;48.982;8.406;2023-07-28T11:50:29;2.00;;;1.90;;
4389;SDS011;2209;48.982;8.406;2023-07-28T11:52:51;2.33;;;2.20;;
4389;SDS011;2209;48.982;8.406;2023-07-28T11:55:13;2.50;;;2.27;;
4389;SDS011;2209;48.982;8.406;2023-07-28T11:57:37;2.43;;;2.23;;
4389;SDS011;2209;48.982;8.406;2023-07-28T11:59:59;2.50;;;2.30;;
4389;SDS011;2209;48.982;8.406;2023-07-28T12:02:26;3.23;;;2.80;;
4389;SDS011;2209;48.982;8.406;2023-07-28T12:04:48;2.70;;;2.53;;
4389;SDS011;2209;48.982;8.406;2023-07-28T12:07:11;2.87;;;2.53;;
4389;SDS011;2209;48.982;8.406;2023-07-28T12:09:47;2.80;;;2.27;;
4389;SDS011;2209;48.982;8.406;2023-07-28T12:12:13;3.10;;;2.40;;
4389;SDS011;2209;48.982;8.406;2023-07-28T12:14:35;3.87;;;2.67;;
4389;SDS011;2209;48.982;8.406;2023-07-28T12:16:58;2.63;;;2.50;;
4389;SDS011;2209;48.982;8.406;2023-07-28T12:19:22;2.93;;;2.53;;
4389;SDS011;2209;48.982;8.406;2023-07-28T12:21:44;3.40;;;3.20;;
4389;SDS011;2209;48.982;8.406;2023-07-28T12:24:07;3.80;;;2.70;;
4389;SDS011;2209;48.982;8.406;2023-07-28T12:26:29;2.90;;;2.70;;
4389;SDS011;2209;48.982;8.406;2023-07-28T12:28:51;3.43;;;3.13;;
4389;SDS011;2209;48.982;8.406;2023-07-28T12:31:13;3.33;;;2.90;;
4389;SDS011;2209;48.982;8.406;2023-07-28T12:33:35;3.57;;;2.93;;
4389;SDS011;2209;48.982;8.406;2023-07-28T12:35:58;2.73;;;2.60;;
4389;SDS011;2209;48.982;8.406;2023-07-28T12:38:20;3.17;;;2.90;;
4389;SDS011;2209;48.982;8.406;2023-07-28T12:40:42;2.60;;;2.40;;
4389;SDS011;2209;48.982;8.406;2023-07-28T12:43:04;3.93;;;2.87;;
4389;SDS011;2209;48.982;8.406;2023-07-28T12:45:27;3.17;;;2.90;;
4389;SDS011;2209;48.982;8.406;2023-07-28T12:47:49;3.40;;;3.03;;
4389;SDS011;2209;48.982;8.406;2023-07-28T12:50:11;4.00;;;3.60;;
4389;SDS011;2209;48.982;8.406;2023-07-28T12:52:34;2.87;;;2.70;;
4389;SDS011;2209;48.982;8.406;2023-07-28T12:54:56;3.13;;;2.90;;
4389;SDS011;2209;48.982;8.406;2023-07-28T12:57:19;4.73;;;3.10;;
4389;SDS011;2209;48.982;8.406;2023-07-28T12:59:41;2.77;;;2.57;;
4389;SDS011;2209;48.982;8.406;2023-07-28T13:02:03;4.50;;;3.20;;
4389;SDS011;2209;48.982;8.406;2023-07-28T13:04:25;4.00;;;3.00;;
4389;SDS011;2209;48.982;8.406;2023-07-28T13:06:47;3.43;;;3.13;;
4389;SDS011;2209;48.982;8.406;2023-07-28T13:09:11;4.47;;;3.33;;
4389;SDS011;2209;48.982;8.406;2023-07-28T13:11:33;3.23;;;2.93;;
4389;SDS011;2209;48.982;8.406;2023-07-28T13:13:55;3.23;;;3.03;;
4389;SDS011;2209;48.982;8.406;2023-07-28T13:16:17;3.90;;;3.60;;
4389;SDS011;2209;48.982;8.406;2023-07-28T13:18:39;4.80;;;2.93;;
4389;SDS011;2209;48.982;8.406;2023-07-28T13:21:02;2.83;;;2.63;;
4389;SDS011;2209;48.982;8.406;2023-07-28T13:23:24;3.57;;;3.27;;
4389;SDS011;2209;48.982;8.406;2023-07-28T13:25:48;3.50;;;3.20;;
4389;SDS011;2209;48.982;8.406;2023-07-28T13:28:10;5.27;;;3.63;;
4389;SDS011;2209;48.982;8.406;2023-07-28T13:30:32;3.33;;;3.13;;
4389;SDS011;2209;48.982;8.406;2023-07-28T13:32:54;4.70;;;3.50;;
4389;SDS011;2209;48.982;8.406;2023-07-28T13:35:16;5.53;;;3.40;;
4389;SDS011;2209;48.982;8.406;2023-07-28T13:37:38;2.83;;;2.63;;
4389;SDS011;2209;48.982;8.406;2023-07-28T13:40:00;3.57;;;3.27;;
4389;SDS011;2209;48.982;8.406;2023-07-28T13:42:24;4.27;;;3.03;;
4389;SDS011;2209;48.982;8.406;2023-07-28T13:44:46;3.20;;;2.90;;
4389;SDS011;2209;48.982;8.406;2023-07-28T13:47:08;3.50;;;2.90;;
4389;SDS011;2209;48.982;8.406;2023-07-28T13:49:30;4.43;;;3.03;;
4389;SDS011;2209;48.982;8.406;2023-07-28T13:51:55;3.57;;;3.20;;
4389;SDS011;2209;48.982;8.406;2023-07-28T13:54:17;3.33;;;3.03;;
4389;SDS011;2209;48.982;8.406;2023-07-28T13:56:40;5.13;;;3.63;;
4389;SDS011;2209;48.982;8.406;2023-07-28T14:01:55;3.33;;;3.03;;
4389;SDS011;2209;48.982;8.406;2023-07-28T14:04:18;4.53;;;3.10;;
4389;SDS011;2209;48.982;8.406;2023-07-28T14:06:40;3.27;;;2.93;;
4389;SDS011;2209;48.982;8.406;2023-07-28T14:09:03;2.77;;;2.57;;
4389;SDS011;2209;48.982;8.406;2023-07-28T14:11:25;2.87;;;2.30;;
4389;SDS011;2209;48.982;8.406;2023-07-28T14:13:47;2.37;;;2.17;;
4389;SDS011;2209;48.982;8.406;2023-07-28T14:16:09;2.50;;;2.30;;
4389;SDS011;2209;48.982;8.406;2023-07-28T14:18:32;3.47;;;2.53;;
4389;SDS011;2209;48.982;8.406;2023-07-28T14:20:54;5.27;;;3.00;;
4389;SDS011;2209;48.982;8.406;2023-07-28T14:23:20;3.10;;;2.67;;
4389;SDS011;2209;48.982;8.406;2023-07-28T14:25:44;3.63;;;2.10;;
4389;SDS011;2209;48.982;8.406;2023-07-28T14:28:06;3.30;;;2.60;;
4389;SDS011;2209;48.982;8.406;2023-07-28T14:30:28;3.00;;;2.80;;
4389;SDS011;2209;48.982;8.406;2023-07-28T14:32:50;2.80;;;2.20;;
4389;SDS011;2209;48.982;8.406;2023-07-28T14:35:13;2.97;;;2.67;;
4389;SDS011;2209;48.982;8.406;2023-07-28T14:37:36;2.63;;;2.47;;
4389;SDS011;2209;48.982;8.406;2023-07-28T14:39:58;2.03;;;1.93;;
4389;SDS011;2209;48.982;8.406;2023-07-28T14:42:20;4.70;;;2.37;;
4389;SDS011;2209;48.982;8.406;2023-07-28T14:44:42;6.77;;;2.30;;
4389;SDS011;2209;48.982;8.406;2023-07-28T14:47:04;2.43;;;2.23;;
4389;SDS011;2209;48.982;8.406;2023-07-28T14:49:27;2.80;;;2.40;;
4389;SDS011;2209;48.982;8.406;2023-07-28T14:51:50;2.63;;;2.30;;